sensor_id;sensor_type;location;lat;lon;timestamp;pressure;altitude;pressure_sealevel;temperature;humidity
77770;BME280;66961;51.482;9.160;2023-05-07T00:01:28;99508.28;;;13.19;77.70
77770;BME280;66961;51.482;9.160;2023-05-07T00:03:53;99497.16;;;13.15;77.68
77770;BME280;66961;51.482;9.160;2023-05-07T00:06:18;99505.00;;;13.17;77.38
77770;BME280;66961;51.482;9.160;2023-05-07T00:08:43;99498.53;;;13.11;77.75
77770;BME280;66961;51.482;9.160;2023-05-07T00:11:09;99495.44;;;13.08;77.48
77770;BME280;66961;51.482;9.160;2023-05-07T00:13:34;99493.97;;;13.05;76.65
77770;BME280;66961;51.482;9.160;2023-05-07T00:15:59;99499.47;;;13.04;77.74
77770;BME280;66961;51.482;9.160;2023-05-07T00:18:24;99505.97;;;13.01;77.14
77770;BME280;66961;51.482;9.160;2023-05-07T00:20:50;99505.56;;;12.98;76.90
77770;BME280;66961;51.482;9.160;2023-05-07T00:23:15;99509.41;;;12.95;77.36
77770;BME280;66961;51.482;9.160;2023-05-07T00:25:40;99507.75;;;12.94;76.91
77770;BME280;66961;51.482;9.160;2023-05-07T00:28:05;99502.34;;;12.87;76.74
77770;BME280;66961;51.482;9.160;2023-05-07T00:30:31;99501.34;;;12.88;76.96
77770;BME280;66961;51.482;9.160;2023-05-07T00:32:56;99504.81;;;12.89;77.12
77770;BME280;66961;51.482;9.160;2023-05-07T00:35:21;99507.66;;;12.87;77.11
77770;BME280;66961;51.482;9.160;2023-05-07T00:37:47;99508.84;;;12.85;77.46
77770;BME280;66961;51.482;9.160;2023-05-07T00:40:12;99520.50;;;12.84;76.31
77770;BME280;66961;51.482;9.160;2023-05-07T00:42:37;99519.22;;;12.80;77.56
77770;BME280;66961;51.482;9.160;2023-05-07T00:45:03;99514.25;;;12.77;77.83
77770;BME280;66961;51.482;9.160;2023-05-07T00:47:28;99510.31;;;12.73;77.35
77770;BME280;66961;51.482;9.160;2023-05-07T00:49:54;99511.13;;;12.73;77.58
77770;BME280;66961;51.482;9.160;2023-05-07T00:52:20;99516.63;;;12.72;77.93
77770;BME280;66961;51.482;9.160;2023-05-07T00:54:47;99504.91;;;12.66;77.31
77770;BME280;66961;51.482;9.160;2023-05-07T00:57:12;99511.22;;;12.65;77.59
77770;BME280;66961;51.482;9.160;2023-05-07T00:59:37;99506.72;;;12.66;77.65
77770;BME280;66961;51.482;9.160;2023-05-07T01:02:03;99512.31;;;12.56;77.64
77770;BME280;66961;51.482;9.160;2023-05-07T01:04:28;99507.81;;;12.56;77.68
77770;BME280;66961;51.482;9.160;2023-05-07T01:06:55;99509.66;;;12.56;77.54
77770;BME280;66961;51.482;9.160;2023-05-07T01:09:22;99517.91;;;12.61;77.91
77770;BME280;66961;51.482;9.160;2023-05-07T01:11:49;99510.28;;;12.58;77.98
77770;BME280;66961;51.482;9.160;2023-05-07T01:14:16;99513.13;;;12.56;77.99
77770;BME280;66961;51.482;9.160;2023-05-07T01:16:41;99513.97;;;12.57;77.66
77770;BME280;66961;51.482;9.160;2023-05-07T01:19:08;99520.38;;;12.63;77.69
77770;BME280;66961;51.482;9.160;2023-05-07T01:21:36;99510.47;;;12.56;78.17
77770;BME280;66961;51.482;9.160;2023-05-07T01:24:04;99508.94;;;12.47;78.91
77770;BME280;66961;51.482;9.160;2023-05-07T01:26:30;99516.44;;;12.44;78.96
77770;BME280;66961;51.482;9.160;2023-05-07T01:28:55;99519.56;;;12.47;79.17
77770;BME280;66961;51.482;9.160;2023-05-07T01:31:21;99518.28;;;12.43;78.78
77770;BME280;66961;51.482;9.160;2023-05-07T01:33:48;99520.47;;;12.40;78.71
77770;BME280;66961;51.482;9.160;2023-05-07T01:36:14;99505.41;;;12.32;78.73
77770;BME280;66961;51.482;9.160;2023-05-07T01:38:41;99515.03;;;12.33;78.45
77770;BME280;66961;51.482;9.160;2023-05-07T01:41:07;99522.84;;;12.35;78.41
77770;BME280;66961;51.482;9.160;2023-05-07T01:43:33;99511.75;;;12.31;78.66
77770;BME280;66961;51.482;9.160;2023-05-07T01:45:58;99527.03;;;12.29;78.67
77770;BME280;66961;51.482;9.160;2023-05-07T01:48:25;99530.88;;;12.26;78.92
77770;BME280;66961;51.482;9.160;2023-05-07T01:50:51;99533.88;;;12.23;78.71
77770;BME280;66961;51.482;9.160;2023-05-07T01:53:17;99531.22;;;12.23;78.67
77770;BME280;66961;51.482;9.160;2023-05-07T01:55:42;99525.91;;;12.23;78.71
77770;BME280;66961;51.482;9.160;2023-05-07T01:58:07;99531.41;;;12.22;78.97
77770;BME280;66961;51.482;9.160;2023-05-07T02:00:34;99528.75;;;12.22;78.67
77770;BME280;66961;51.482;9.160;2023-05-07T02:02:59;99534.91;;;12.22;78.94
77770;BME280;66961;51.482;9.160;2023-05-07T02:05:24;99534.97;;;12.14;78.20
77770;BME280;66961;51.482;9.160;2023-05-07T02:07:50;99535.78;;;12.15;78.95
77770;BME280;66961;51.482;9.160;2023-05-07T02:10:15;99539.09;;;12.17;78.89
77770;BME280;66961;51.482;9.160;2023-05-07T02:12:40;99540.91;;;12.16;79.07
77770;BME280;66961;51.482;9.160;2023-05-07T02:15:06;99535.78;;;12.15;79.26
77770;BME280;66961;51.482;9.160;2023-05-07T02:17:31;99546.59;;;12.13;79.23
77770;BME280;66961;51.482;9.160;2023-05-07T02:19:57;99543.09;;;12.13;79.23
77770;BME280;66961;51.482;9.160;2023-05-07T02:22:22;99537.50;;;12.08;79.33
77770;BME280;66961;51.482;9.160;2023-05-07T02:24:47;99540.69;;;12.03;79.43
77770;BME280;66961;51.482;9.160;2023-05-07T02:27:13;99551.97;;;12.05;79.61
77770;BME280;66961;51.482;9.160;2023-05-07T02:29:38;99556.75;;;12.10;79.80
77770;BME280;66961;51.482;9.160;2023-05-07T02:32:03;99553.97;;;12.03;79.32
77770;BME280;66961;51.482;9.160;2023-05-07T02:34:28;99551.66;;;12.00;80.24
77770;BME280;66961;51.482;9.160;2023-05-07T02:36:54;99543.44;;;11.95;79.74
77770;BME280;66961;51.482;9.160;2023-05-07T02:39:19;99547.91;;;11.95;80.02
77770;BME280;66961;51.482;9.160;2023-05-07T02:41:44;99548.75;;;11.95;80.61
77770;BME280;66961;51.482;9.160;2023-05-07T02:44:09;99549.75;;;11.94;80.29
77770;BME280;66961;51.482;9.160;2023-05-07T02:46:35;99550.75;;;11.93;79.91
77770;BME280;66961;51.482;9.160;2023-05-07T02:49:00;99555.88;;;11.95;80.10
77770;BME280;66961;51.482;9.160;2023-05-07T02:51:25;99546.91;;;11.96;80.74
77770;BME280;66961;51.482;9.160;2023-05-07T02:53:51;99541.00;;;11.85;80.74
77770;BME280;66961;51.482;9.160;2023-05-07T02:56:16;99540.81;;;11.87;80.66
77770;BME280;66961;51.482;9.160;2023-05-07T02:58:41;99536.03;;;11.82;80.84
77770;BME280;66961;51.482;9.160;2023-05-07T03:01:07;99540.34;;;11.83;80.69
77770;BME280;66961;51.482;9.160;2023-05-07T03:03:32;99545.19;;;11.80;80.56
77770;BME280;66961;51.482;9.160;2023-05-07T03:05:58;99538.72;;;11.74;80.82
77770;BME280;66961;51.482;9.160;2023-05-07T03:08:24;99544.84;;;11.75;80.83
77770;BME280;66961;51.482;9.160;2023-05-07T03:10:49;99546.50;;;11.76;80.62
77770;BME280;66961;51.482;9.160;2023-05-07T03:13:14;99539.72;;;11.73;80.26
77770;BME280;66961;51.482;9.160;2023-05-07T03:15:39;99542.91;;;11.69;80.40
77770;BME280;66961;51.482;9.160;2023-05-07T03:18:05;99542.25;;;11.67;81.29
77770;BME280;66961;51.482;9.160;2023-05-07T03:20:30;99547.38;;;11.68;80.76
77770;BME280;66961;51.482;9.160;2023-05-07T03:22:55;99541.28;;;11.59;80.73
77770;BME280;66961;51.482;9.160;2023-05-07T03:25:21;99539.81;;;11.57;81.21
77770;BME280;66961;51.482;9.160;2023-05-07T03:27:46;99540.63;;;11.57;81.02
77770;BME280;66961;51.482;9.160;2023-05-07T03:30:12;99540.16;;;11.54;81.56
77770;BME280;66961;51.482;9.160;2023-05-07T03:32:37;99536.38;;;11.48;81.20
77770;BME280;66961;51.482;9.160;2023-05-07T03:35:03;99539.31;;;11.53;81.22
77770;BME280;66961;51.482;9.160;2023-05-07T03:37:29;99535.38;;;11.49;81.35
77770;BME280;66961;51.482;9.160;2023-05-07T03:39:54;99530.94;;;11.42;81.95
77770;BME280;66961;51.482;9.160;2023-05-07T03:42:20;99527.00;;;11.38;81.50
77770;BME280;66961;51.482;9.160;2023-05-07T03:44:45;99542.59;;;11.33;81.63
77770;BME280;66961;51.482;9.160;2023-05-07T03:47:10;99548.09;;;11.31;81.76
77770;BME280;66961;51.482;9.160;2023-05-07T03:49:36;99551.41;;;11.25;81.28
77770;BME280;66961;51.482;9.160;2023-05-07T03:52:02;99546.13;;;11.25;81.70
77770;BME280;66961;51.482;9.160;2023-05-07T03:54:27;99551.75;;;11.22;81.65
77770;BME280;66961;51.482;9.160;2023-05-07T03:56:52;99544.31;;;11.17;81.71
77770;BME280;66961;51.482;9.160;2023-05-07T03:59:17;99554.94;;;11.17;82.36
77770;BME280;66961;51.482;9.160;2023-05-07T04:01:43;99560.41;;;11.16;81.66
77770;BME280;66961;51.482;9.160;2023-05-07T04:04:08;99566.19;;;11.19;81.93
77770;BME280;66961;51.482;9.160;2023-05-07T04:06:33;99555.59;;;11.19;81.97
77770;BME280;66961;51.482;9.160;2023-05-07T04:08:58;99559.25;;;11.18;82.00
77770;BME280;66961;51.482;9.160;2023-05-07T04:11:24;99563.50;;;11.27;81.81
77770;BME280;66961;51.482;9.160;2023-05-07T04:13:49;99569.00;;;11.26;81.28
77770;BME280;66961;51.482;9.160;2023-05-07T04:16:14;99558.25;;;11.19;80.41
77770;BME280;66961;51.482;9.160;2023-05-07T04:18:41;99548.66;;;11.10;81.10
77770;BME280;66961;51.482;9.160;2023-05-07T04:21:13;99550.63;;;11.16;81.21
77770;BME280;66961;51.482;9.160;2023-05-07T04:23:39;99563.41;;;11.13;80.75
77770;BME280;66961;51.482;9.160;2023-05-07T04:26:04;99569.69;;;11.12;81.07
77770;BME280;66961;51.482;9.160;2023-05-07T04:28:29;99570.34;;;11.14;80.87
77770;BME280;66961;51.482;9.160;2023-05-07T04:30:55;99576.34;;;11.08;80.32
77770;BME280;66961;51.482;9.160;2023-05-07T04:33:20;99580.47;;;11.10;80.18
77770;BME280;66961;51.482;9.160;2023-05-07T04:35:45;99587.78;;;11.08;80.78
77770;BME280;66961;51.482;9.160;2023-05-07T04:38:10;99588.09;;;11.13;80.32
77770;BME280;66961;51.482;9.160;2023-05-07T04:40:36;99580.97;;;11.14;80.33
77770;BME280;66961;51.482;9.160;2023-05-07T04:43:01;99584.94;;;11.18;80.77
77770;BME280;66961;51.482;9.160;2023-05-07T04:45:26;99587.72;;;11.24;80.44
77770;BME280;66961;51.482;9.160;2023-05-07T04:47:52;99587.72;;;11.24;79.71
77770;BME280;66961;51.482;9.160;2023-05-07T04:50:17;99582.44;;;11.16;79.44
77770;BME280;66961;51.482;9.160;2023-05-07T04:52:42;99594.22;;;11.22;79.48
77770;BME280;66961;51.482;9.160;2023-05-07T04:55:08;99602.66;;;11.25;79.73
77770;BME280;66961;51.482;9.160;2023-05-07T04:57:33;99606.78;;;11.28;79.42
77770;BME280;66961;51.482;9.160;2023-05-07T04:59:58;99610.75;;;11.32;79.27
77770;BME280;66961;51.482;9.160;2023-05-07T05:02:24;99616.91;;;11.33;78.97
77770;BME280;66961;51.482;9.160;2023-05-07T05:04:49;99620.81;;;11.45;79.21
77770;BME280;66961;51.482;9.160;2023-05-07T05:07:14;99613.06;;;11.43;78.39
77770;BME280;66961;51.482;9.160;2023-05-07T05:09:39;99621.00;;;11.43;78.66
77770;BME280;66961;51.482;9.160;2023-05-07T05:12:05;99626.94;;;11.45;77.77
77770;BME280;66961;51.482;9.160;2023-05-07T05:14:30;99623.00;;;11.41;77.75
77770;BME280;66961;51.482;9.160;2023-05-07T05:16:55;99619.16;;;11.44;78.63
77770;BME280;66961;51.482;9.160;2023-05-07T05:19:20;99620.53;;;11.40;78.12
77770;BME280;66961;51.482;9.160;2023-05-07T05:21:46;99626.84;;;11.39;77.76
77770;BME280;66961;51.482;9.160;2023-05-07T05:24:11;99615.38;;;11.38;78.07
77770;BME280;66961;51.482;9.160;2023-05-07T05:26:36;99618.22;;;11.37;78.17
77770;BME280;66961;51.482;9.160;2023-05-07T05:29:01;99618.03;;;11.38;78.21
77770;BME280;66961;51.482;9.160;2023-05-07T05:31:27;99630.00;;;11.34;77.92
77770;BME280;66961;51.482;9.160;2023-05-07T05:33:52;99628.00;;;11.36;78.31
77770;BME280;66961;51.482;9.160;2023-05-07T05:36:17;99626.16;;;11.37;77.81
77770;BME280;66961;51.482;9.160;2023-05-07T05:38:43;99623.34;;;11.38;78.32
77770;BME280;66961;51.482;9.160;2023-05-07T05:41:08;99623.84;;;11.42;77.71
77770;BME280;66961;51.482;9.160;2023-05-07T05:43:33;99624.84;;;11.41;77.37
77770;BME280;66961;51.482;9.160;2023-05-07T05:45:59;99625.13;;;11.46;77.70
77770;BME280;66961;51.482;9.160;2023-05-07T05:48:24;99628.56;;;11.54;77.72
77770;BME280;66961;51.482;9.160;2023-05-07T05:50:50;99636.69;;;11.61;78.27
77770;BME280;66961;51.482;9.160;2023-05-07T05:53:15;99634.03;;;11.61;76.90
77770;BME280;66961;51.482;9.160;2023-05-07T05:55:41;99640.19;;;11.53;77.07
77770;BME280;66961;51.482;9.160;2023-05-07T05:58:07;99639.19;;;11.54;76.75
77770;BME280;66961;51.482;9.160;2023-05-07T06:00:32;99641.16;;;11.60;76.94
77770;BME280;66961;51.482;9.160;2023-05-07T06:02:58;99642.16;;;11.59;76.75
77770;BME280;66961;51.482;9.160;2023-05-07T06:05:23;99642.44;;;11.73;76.46
77770;BME280;66961;51.482;9.160;2023-05-07T06:07:48;99639.75;;;11.89;76.84
77770;BME280;66961;51.482;9.160;2023-05-07T06:10:13;99640.97;;;12.01;75.58
77770;BME280;66961;51.482;9.160;2023-05-07T06:12:39;99635.63;;;12.09;75.73
77770;BME280;66961;51.482;9.160;2023-05-07T06:15:05;99645.25;;;12.10;75.14
77770;BME280;66961;51.482;9.160;2023-05-07T06:17:30;99644.59;;;12.08;74.92
77770;BME280;66961;51.482;9.160;2023-05-07T06:19:55;99639.28;;;12.08;75.06
77770;BME280;66961;51.482;9.160;2023-05-07T06:22:21;99642.28;;;12.05;74.98
77770;BME280;66961;51.482;9.160;2023-05-07T06:24:46;99647.28;;;12.00;74.35
77770;BME280;66961;51.482;9.160;2023-05-07T06:27:11;99638.97;;;12.03;74.47
77770;BME280;66961;51.482;9.160;2023-05-07T06:29:37;99637.78;;;12.06;74.78
77770;BME280;66961;51.482;9.160;2023-05-07T06:32:08;99640.94;;;12.09;75.19
77770;BME280;66961;51.482;9.160;2023-05-07T06:34:34;99646.41;;;12.08;74.68
77770;BME280;66961;51.482;9.160;2023-05-07T06:36:59;99638.09;;;12.11;74.51
77770;BME280;66961;51.482;9.160;2023-05-07T06:39:25;99645.41;;;12.09;74.51
77770;BME280;66961;51.482;9.160;2023-05-07T06:41:50;99647.91;;;12.10;74.74
77770;BME280;66961;51.482;9.160;2023-05-07T06:44:15;99643.06;;;12.14;74.11
77770;BME280;66961;51.482;9.160;2023-05-07T06:46:41;99644.41;;;12.10;74.56
77770;BME280;66961;51.482;9.160;2023-05-07T06:49:06;99653.22;;;12.10;74.55
77770;BME280;66961;51.482;9.160;2023-05-07T06:51:32;99658.53;;;12.10;74.14
77770;BME280;66961;51.482;9.160;2023-05-07T06:53:57;99669.50;;;12.07;74.45
77770;BME280;66961;51.482;9.160;2023-05-07T06:56:23;99666.00;;;12.07;74.05
77770;BME280;66961;51.482;9.160;2023-05-07T06:58:48;99672.72;;;12.25;73.88
77770;BME280;66961;51.482;9.160;2023-05-07T07:01:13;99669.38;;;12.32;73.29
77770;BME280;66961;51.482;9.160;2023-05-07T07:03:38;99667.03;;;12.51;73.08
77770;BME280;66961;51.482;9.160;2023-05-07T07:06:04;99673.19;;;12.75;72.44
77770;BME280;66961;51.482;9.160;2023-05-07T07:08:29;99670.28;;;12.84;72.40
77770;BME280;66961;51.482;9.160;2023-05-07T07:10:54;99673.06;;;12.91;72.13
77770;BME280;66961;51.482;9.160;2023-05-07T07:13:20;99679.69;;;13.10;71.65
77770;BME280;66961;51.482;9.160;2023-05-07T07:15:45;99678.19;;;13.30;71.21
77770;BME280;66961;51.482;9.160;2023-05-07T07:18:10;99678.03;;;13.46;70.80
77770;BME280;66961;51.482;9.160;2023-05-07T07:20:35;99673.97;;;13.50;70.23
77770;BME280;66961;51.482;9.160;2023-05-07T07:23:01;99668.25;;;13.68;69.89
77770;BME280;66961;51.482;9.160;2023-05-07T07:25:26;99662.94;;;13.68;68.93
77770;BME280;66961;51.482;9.160;2023-05-07T07:27:51;99666.34;;;13.47;69.71
77770;BME280;66961;51.482;9.160;2023-05-07T07:30:17;99667.81;;;13.50;69.75
77770;BME280;66961;51.482;9.160;2023-05-07T07:32:42;99680.19;;;13.57;69.41
77770;BME280;66961;51.482;9.160;2023-05-07T07:35:07;99677.19;;;13.46;69.51
77770;BME280;66961;51.482;9.160;2023-05-07T07:37:33;99677.56;;;13.43;70.05
77770;BME280;66961;51.482;9.160;2023-05-07T07:39:58;99675.63;;;13.51;70.64
77770;BME280;66961;51.482;9.160;2023-05-07T07:42:23;99675.31;;;13.76;70.14
77770;BME280;66961;51.482;9.160;2023-05-07T07:44:49;99672.09;;;13.80;69.48
77770;BME280;66961;51.482;9.160;2023-05-07T07:47:14;99660.28;;;14.04;68.86
77770;BME280;66961;51.482;9.160;2023-05-07T07:49:39;99661.94;;;14.05;68.62
77770;BME280;66961;51.482;9.160;2023-05-07T07:52:04;99668.88;;;14.21;67.93
77770;BME280;66961;51.482;9.160;2023-05-07T07:54:30;99669.00;;;14.13;67.58
77770;BME280;66961;51.482;9.160;2023-05-07T07:56:55;99663.63;;;14.28;67.49
77770;BME280;66961;51.482;9.160;2023-05-07T07:59:20;99669.84;;;14.49;67.07
77770;BME280;66961;51.482;9.160;2023-05-07T08:01:46;99680.69;;;14.69;66.22
77770;BME280;66961;51.482;9.160;2023-05-07T08:04:11;99684.25;;;14.55;65.93
77770;BME280;66961;51.482;9.160;2023-05-07T08:06:36;99683.16;;;14.71;66.45
77770;BME280;66961;51.482;9.160;2023-05-07T08:09:02;99678.69;;;14.78;64.97
77770;BME280;66961;51.482;9.160;2023-05-07T08:11:27;99680.22;;;14.87;65.00
77770;BME280;66961;51.482;9.160;2023-05-07T08:13:54;99682.25;;;15.13;65.57
77770;BME280;66961;51.482;9.160;2023-05-07T08:16:19;99680.81;;;15.10;65.26
77770;BME280;66961;51.482;9.160;2023-05-07T08:18:44;99688.81;;;15.38;65.08
77770;BME280;66961;51.482;9.160;2023-05-07T08:21:10;99694.13;;;15.60;63.11
77770;BME280;66961;51.482;9.160;2023-05-07T08:23:35;99685.22;;;15.87;63.35
77770;BME280;66961;51.482;9.160;2023-05-07T08:26:01;99689.41;;;16.16;62.09
77770;BME280;66961;51.482;9.160;2023-05-07T08:28:26;99682.44;;;16.08;62.36
77770;BME280;66961;51.482;9.160;2023-05-07T08:30:51;99683.06;;;16.10;61.88
77770;BME280;66961;51.482;9.160;2023-05-07T08:33:16;99685.94;;;16.22;61.54
77770;BME280;66961;51.482;9.160;2023-05-07T08:35:42;99681.59;;;16.08;62.11
77770;BME280;66961;51.482;9.160;2023-05-07T08:38:07;99688.59;;;16.09;62.90
77770;BME280;66961;51.482;9.160;2023-05-07T08:40:37;99699.44;;;15.94;61.75
77770;BME280;66961;51.482;9.160;2023-05-07T08:43:02;99705.03;;;16.06;61.00
77770;BME280;66961;51.482;9.160;2023-05-07T08:45:30;99706.19;;;15.90;61.77
77770;BME280;66961;51.482;9.160;2023-05-07T08:48:09;99711.22;;;16.06;61.81
77770;BME280;66961;51.482;9.160;2023-05-07T08:50:39;99708.03;;;15.55;62.54
77770;BME280;66961;51.482;9.160;2023-05-07T08:53:04;99690.84;;;15.36;62.94
77770;BME280;66961;51.482;9.160;2023-05-07T08:55:30;99693.75;;;15.69;63.11
77770;BME280;66961;51.482;9.160;2023-05-07T08:57:55;99693.03;;;15.88;63.04
77770;BME280;66961;51.482;9.160;2023-05-07T09:00:21;99696.06;;;15.79;62.12
77770;BME280;66961;51.482;9.160;2023-05-07T09:02:46;99695.38;;;16.05;63.17
77770;BME280;66961;51.482;9.160;2023-05-07T09:05:12;99695.00;;;16.21;61.54
77770;BME280;66961;51.482;9.160;2023-05-07T09:07:37;99703.03;;;15.73;62.52
77770;BME280;66961;51.482;9.160;2023-05-07T09:10:04;99706.19;;;15.90;62.61
77770;BME280;66961;51.482;9.160;2023-05-07T09:12:29;99699.13;;;15.76;62.70
77770;BME280;66961;51.482;9.160;2023-05-07T09:14:55;99707.81;;;15.84;62.07
77770;BME280;66961;51.482;9.160;2023-05-07T09:17:20;99691.22;;;15.96;61.36
77770;BME280;66961;51.482;9.160;2023-05-07T09:19:45;99693.50;;;16.12;62.41
77770;BME280;66961;51.482;9.160;2023-05-07T09:22:11;99709.19;;;16.21;61.03
77770;BME280;66961;51.482;9.160;2023-05-07T09:24:37;99704.25;;;16.18;60.53
77770;BME280;66961;51.482;9.160;2023-05-07T09:27:02;99714.31;;;16.10;60.48
77770;BME280;66961;51.482;9.160;2023-05-07T09:29:28;99712.16;;;16.46;61.89
77770;BME280;66961;51.482;9.160;2023-05-07T09:31:53;99701.53;;;16.79;60.02
77770;BME280;66961;51.482;9.160;2023-05-07T09:34:18;99701.28;;;16.68;59.76
77770;BME280;66961;51.482;9.160;2023-05-07T09:36:44;99698.59;;;16.61;60.51
77770;BME280;66961;51.482;9.160;2023-05-07T09:39:09;99695.75;;;16.76;59.63
77770;BME280;66961;51.482;9.160;2023-05-07T09:41:43;99703.38;;;16.72;59.00
77770;BME280;66961;51.482;9.160;2023-05-07T09:44:09;99690.78;;;16.66;60.59
77770;BME280;66961;51.482;9.160;2023-05-07T09:46:36;99702.38;;;17.06;58.17
77770;BME280;66961;51.482;9.160;2023-05-07T09:49:02;99689.59;;;17.08;59.32
77770;BME280;66961;51.482;9.160;2023-05-07T09:51:45;99698.25;;;16.97;58.75
77770;BME280;66961;51.482;9.160;2023-05-07T09:54:12;99694.53;;;16.98;59.35
77770;BME280;66961;51.482;9.160;2023-05-07T09:56:39;99702.38;;;17.06;58.92
77770;BME280;66961;51.482;9.160;2023-05-07T09:59:05;99700.66;;;16.59;60.05
77770;BME280;66961;51.482;9.160;2023-05-07T10:01:32;99699.63;;;16.60;60.25
77770;BME280;66961;51.482;9.160;2023-05-07T10:04:01;99699.25;;;16.70;60.27
77770;BME280;66961;51.482;9.160;2023-05-07T10:06:28;99705.78;;;16.54;60.15
77770;BME280;66961;51.482;9.160;2023-05-07T10:08:54;99699.84;;;16.65;59.77
77770;BME280;66961;51.482;9.160;2023-05-07T10:11:21;99712.16;;;16.53;60.10
77770;BME280;66961;51.482;9.160;2023-05-07T10:13:48;99707.16;;;16.30;60.76
77770;BME280;66961;51.482;9.160;2023-05-07T10:16:13;99703.13;;;16.61;61.60
77770;BME280;66961;51.482;9.160;2023-05-07T10:18:40;99696.56;;;16.70;61.04
77770;BME280;66961;51.482;9.160;2023-05-07T10:21:15;99701.66;;;16.45;60.19
77770;BME280;66961;51.482;9.160;2023-05-07T10:23:44;99684.56;;;16.46;60.59
77770;BME280;66961;51.482;9.160;2023-05-07T10:26:11;99694.09;;;16.75;59.84
77770;BME280;66961;51.482;9.160;2023-05-07T10:28:39;99688.31;;;16.65;60.50
77770;BME280;66961;51.482;9.160;2023-05-07T10:33:40;99703.81;;;16.89;58.63
77770;BME280;66961;51.482;9.160;2023-05-07T10:36:06;99706.91;;;16.93;60.33
77770;BME280;66961;51.482;9.160;2023-05-07T10:38:31;99706.50;;;17.09;58.90
77770;BME280;66961;51.482;9.160;2023-05-07T10:40:57;99700.88;;;17.37;59.14
77770;BME280;66961;51.482;9.160;2023-05-07T10:43:22;99703.78;;;17.42;58.31
77770;BME280;66961;51.482;9.160;2023-05-07T10:46:26;99706.81;;;17.78;57.66
77770;BME280;66961;51.482;9.160;2023-05-07T10:51:26;99704.97;;;17.59;56.48
77770;BME280;66961;51.482;9.160;2023-05-07T10:54:18;99700.41;;;17.73;56.99
77770;BME280;66961;51.482;9.160;2023-05-07T10:56:44;99702.31;;;17.66;57.80
77770;BME280;66961;51.482;9.160;2023-05-07T11:01:57;99691.91;;;17.89;58.05
77770;BME280;66961;51.482;9.160;2023-05-07T11:04:22;99693.16;;;17.93;58.38
77770;BME280;66961;51.482;9.160;2023-05-07T11:10:04;99698.03;;;18.09;57.06
77770;BME280;66961;51.482;9.160;2023-05-07T11:15:11;99685.56;;;18.91;57.10
77770;BME280;66961;51.482;9.160;2023-05-07T11:17:59;99686.63;;;19.33;54.05
77770;BME280;66961;51.482;9.160;2023-05-07T11:21:00;99697.47;;;19.02;53.51
77770;BME280;66961;51.482;9.160;2023-05-07T11:26:00;99695.13;;;19.12;53.03
77770;BME280;66961;51.482;9.160;2023-05-07T11:28:33;99702.47;;;19.41;53.96
77770;BME280;66961;51.482;9.160;2023-05-07T11:31:02;99703.03;;;19.50;52.40
77770;BME280;66961;51.482;9.160;2023-05-07T11:33:27;99701.72;;;19.59;52.97
77770;BME280;66961;51.482;9.160;2023-05-07T11:35:53;99698.22;;;19.34;52.45
77770;BME280;66961;51.482;9.160;2023-05-07T11:38:19;99705.53;;;19.52;53.15
77770;BME280;66961;51.482;9.160;2023-05-07T11:40:51;99700.38;;;19.68;51.84
77770;BME280;66961;51.482;9.160;2023-05-07T11:43:16;99680.44;;;19.14;52.29
77770;BME280;66961;51.482;9.160;2023-05-07T11:45:42;99697.66;;;19.50;52.18
77770;BME280;66961;51.482;9.160;2023-05-07T11:48:07;99695.41;;;19.47;53.03
77770;BME280;66961;51.482;9.160;2023-05-07T11:50:33;99695.41;;;19.47;51.27
77770;BME280;66961;51.482;9.160;2023-05-07T11:52:58;99698.06;;;19.90;51.46
77770;BME280;66961;51.482;9.160;2023-05-07T11:55:24;99699.50;;;19.74;52.17
77770;BME280;66961;51.482;9.160;2023-05-07T11:57:49;99687.09;;;19.73;50.92
77770;BME280;66961;51.482;9.160;2023-05-07T12:00:15;99694.34;;;19.73;52.14
77770;BME280;66961;51.482;9.160;2023-05-07T12:02:41;99690.63;;;20.22;51.25
77770;BME280;66961;51.482;9.160;2023-05-07T12:05:06;99689.59;;;20.23;52.31
77770;BME280;66961;51.482;9.160;2023-05-07T12:07:33;99682.94;;;20.26;51.74
77770;BME280;66961;51.482;9.160;2023-05-07T12:09:59;99673.25;;;20.66;50.25
77770;BME280;66961;51.482;9.160;2023-05-07T12:12:24;99677.75;;;20.96;50.20
77770;BME280;66961;51.482;9.160;2023-05-07T12:14:49;99679.97;;;20.45;48.93
77770;BME280;66961;51.482;9.160;2023-05-07T12:17:15;99677.28;;;20.99;49.58
77770;BME280;66961;51.482;9.160;2023-05-07T12:19:42;99681.88;;;21.10;48.00
77770;BME280;66961;51.482;9.160;2023-05-07T12:22:08;99678.53;;;20.85;48.11
77770;BME280;66961;51.482;9.160;2023-05-07T12:27:09;99685.38;;;21.10;48.71
77770;BME280;66961;51.482;9.160;2023-05-07T12:29:34;99685.50;;;20.51;49.76
77770;BME280;66961;51.482;9.160;2023-05-07T12:31:59;99685.34;;;19.97;49.63
77770;BME280;66961;51.482;9.160;2023-05-07T12:34:25;99685.88;;;19.88;50.68
77770;BME280;66961;51.482;9.160;2023-05-07T12:36:50;99684.09;;;19.63;51.89
77770;BME280;66961;51.482;9.160;2023-05-07T12:39:15;99691.31;;;19.81;51.32
77770;BME280;66961;51.482;9.160;2023-05-07T12:41:57;99695.91;;;20.29;49.92
77770;BME280;66961;51.482;9.160;2023-05-07T12:44:23;99689.78;;;20.70;49.89
77770;BME280;66961;51.482;9.160;2023-05-07T12:46:49;99685.03;;;21.19;48.05
77770;BME280;66961;51.482;9.160;2023-05-07T12:49:14;99680.84;;;21.23;48.22
77770;BME280;66961;51.482;9.160;2023-05-07T12:51:40;99687.00;;;21.82;47.58
77770;BME280;66961;51.482;9.160;2023-05-07T12:54:05;99685.34;;;22.32;45.70
77770;BME280;66961;51.482;9.160;2023-05-07T12:56:31;99690.22;;;21.32;46.71
77770;BME280;66961;51.482;9.160;2023-05-07T12:58:59;99683.50;;;21.81;46.11
77770;BME280;66961;51.482;9.160;2023-05-07T13:01:29;99693.00;;;21.60;47.04
77770;BME280;66961;51.482;9.160;2023-05-07T13:03:54;99682.09;;;21.08;47.14
77770;BME280;66961;51.482;9.160;2023-05-07T13:06:20;99680.63;;;21.24;47.17
77770;BME280;66961;51.482;9.160;2023-05-07T13:08:45;99684.59;;;21.45;47.37
77770;BME280;66961;51.482;9.160;2023-05-07T13:11:11;99691.34;;;22.51;46.20
77770;BME280;66961;51.482;9.160;2023-05-07T13:13:38;99684.50;;;22.60;42.95